Time;durP1;ratioP1;P1;durP2;ratioP2;P2;SDS_P1;SDS_P2;PMS_P1;PMS_P2;Temp;Humidity;BMP_temperature;BMP_pressure;BME280_temperature;BME280_humidity;BME280_pressure;Samples;Min_cycle;Max_cycle;Signal;HPM_P1;HPM_P2
2022/04/12 00:00:23;;;;;;;11.45;5.47;;;;;;;3.70;56.15;101404.73;1679724;85;25906;-61
2022/04/12 00:02:52;;;;;;;11.90;5.67;;;;;;;3.71;55.94;101410.01;1679788;85;25711;-60
2022/04/12 00:05:19;;;;;;;10.50;5.30;;;;;;;3.69;55.81;101409.21;1679771;85;26127;-60
2022/04/12 00:07:46;;;;;;;11.05;5.53;;;;;;;3.68;56.18;101405.27;1677848;85;25643;-60
2022/04/12 00:10:14;;;;;;;12.70;6.00;;;;;;;3.62;55.72;101411.79;1679460;85;27512;-60
2022/04/12 00:12:42;;;;;;;12.20;5.90;;;;;;;3.58;55.61;101403.55;1679518;85;25965;-59
2022/04/12 00:15:12;;;;;;;11.03;5.90;;;;;;;3.56;55.55;101408.95;1671610;85;25738;-61
2022/04/12 00:20:26;;;;;;;16.75;6.67;;;;;;;3.45;55.80;101403.29;1679983;85;25456;-61
2022/04/12 00:22:55;;;;;;;12.88;6.12;;;;;;;3.41;55.66;101406.57;1680028;85;27560;-61
2022/04/12 00:25:23;;;;;;;19.73;5.72;;;;;;;3.38;56.47;101408.52;1679987;85;25552;-60
2022/04/12 00:27:53;;;;;;;15.90;6.25;;;;;;;3.31;55.88;101403.95;1679928;85;25475;-60
2022/04/12 00:30:22;;;;;;;18.82;5.95;;;;;;;3.29;55.79;101409.81;1654504;85;26827;-61
2022/04/12 00:32:50;;;;;;;14.28;5.78;;;;;;;3.22;55.91;101401.73;1652204;86;25821;-61
2022/04/12 00:35:18;;;;;;;12.18;5.83;;;;;;;3.08;56.84;101398.40;1654221;85;27139;-61
2022/04/12 00:37:46;;;;;;;11.08;5.17;;;;;;;2.99;57.00;101402.37;1652481;86;25830;-60
2022/04/12 00:40:16;;;;;;;21.12;7.20;;;;;;;2.88;57.99;101398.01;1670650;85;25834;-61
2022/04/12 00:42:43;;;;;;;10.32;6.17;;;;;;;2.76;58.17;101401.62;1680177;85;26293;-61
2022/04/12 00:45:10;;;;;;;11.22;6.47;;;;;;;2.65;58.46;101397.25;1663377;84;27342;-60
2022/04/12 00:47:39;;;;;;;13.55;6.35;;;;;;;2.56;59.86;101408.29;1679946;85;27497;-61
2022/04/12 00:50:09;;;;;;;10.03;6.00;;;;;;;2.45;60.16;101399.03;1668344;85;25827;-61
2022/04/12 00:52:43;;;;;;;13.43;6.17;;;;;;;2.38;60.62;101406.85;1669829;83;25999;-60
2022/04/12 00:55:10;;;;;;;15.05;7.92;;;;;;;2.32;60.27;101398.72;1723805;83;25954;-61
2022/04/12 00:57:37;;;;;;;12.50;7.80;;;;;;;2.28;60.20;101403.75;1718590;83;26048;-61
2022/04/12 01:00:08;;;;;;;12.80;7.00;;;;;;;2.35;60.23;101403.02;1686209;85;28229;-61
2022/04/12 01:02:35;;;;;;;13.68;6.95;;;;;;;2.42;59.98;101411.59;1686458;84;25769;-61
2022/04/12 01:05:07;;;;;;;12.53;6.83;;;;;;;2.48;59.84;101409.50;1688538;83;25840;-61
2022/04/12 01:07:36;;;;;;;14.13;6.20;;;;;;;2.52;59.80;101402.73;1694725;84;26935;-61
2022/04/12 01:10:05;;;;;;;10.70;6.03;;;;;;;2.54;59.84;101400.41;1694293;84;26185;-61
2022/04/12 01:12:40;;;;;;;13.35;5.70;;;;;;;2.60;59.84;101397.94;1667374;86;27673;-61
2022/04/12 01:15:18;;;;;;;13.68;5.28;;;;;;;2.64;59.94;101393.75;1695098;83;25891;-60
2022/04/12 01:17:47;;;;;;;19.02;6.33;;;;;;;2.70;59.75;101393.94;1708677;82;25458;-61
2022/04/12 01:20:17;;;;;;;9.88;5.72;;;;;;;2.76;59.70;101389.66;1723441;82;26189;-60
2022/04/12 01:23:30;;;;;;;10.15;5.67;;;;;;;2.80;59.66;101396.58;1723614;83;25767;-61
2022/04/12 01:25:57;;;;;;;15.70;6.35;;;;;;;2.82;59.55;101389.84;1723257;83;27577;-61
2022/04/12 01:28:24;;;;;;;12.68;6.62;;;;;;;2.81;59.47;101394.31;1723582;83;25795;-62
2022/04/12 01:30:52;;;;;;;10.75;6.50;;;;;;;2.77;59.66;101397.19;1708471;83;25733;-62
2022/04/12 01:33:19;;;;;;;11.18;6.55;;;;;;;2.74;59.26;101391.52;1718087;82;27206;-61
2022/04/12 01:35:45;;;;;;;10.82;6.08;;;;;;;2.73;59.38;101387.17;1722829;83;26400;-61
2022/04/12 01:38:13;;;;;;;12.35;6.47;;;;;;;2.74;59.13;101393.33;1723381;82;27460;-61
2022/04/12 01:40:40;;;;;;;12.55;7.55;;;;;;;2.74;59.06;101392.84;1698394;83;27276;-61
2022/04/12 01:43:06;;;;;;;15.60;8.05;;;;;;;2.73;58.93;101393.81;1694704;83;25708;-60
2022/04/12 01:45:35;;;;;;;18.48;6.95;;;;;;;2.67;59.13;101387.42;1723342;83;26117;-61
2022/04/12 01:48:01;;;;;;;14.05;6.83;;;;;;;2.65;59.00;101393.27;1723761;82;25816;-61
2022/04/12 01:50:29;;;;;;;16.23;7.58;;;;;;;2.62;59.16;101392.95;1723338;82;28242;-61
2022/04/12 01:52:55;;;;;;;13.20;6.97;;;;;;;2.58;59.14;101398.47;1721629;82;26114;-61
2022/04/12 01:55:22;;;;;;;12.63;6.87;;;;;;;2.52;59.02;101392.11;1718137;83;25726;-61
2022/04/12 01:57:51;;;;;;;17.20;6.45;;;;;;;2.48;59.71;101388.73;1709753;82;26060;-61
2022/04/12 02:00:18;;;;;;;17.98;6.10;;;;;;;2.43;59.30;101384.08;1681306;84;25770;-61
2022/04/12 02:02:45;;;;;;;12.75;7.60;;;;;;;2.39;59.24;101382.51;1681354;83;27495;-61
2022/04/12 02:05:11;;;;;;;16.82;6.78;;;;;;;2.41;59.23;101390.80;1717845;82;25716;-61
2022/04/12 02:07:38;;;;;;;15.05;7.30;;;;;;;2.43;59.19;101387.61;1718163;82;25738;-62
2022/04/12 02:10:06;;;;;;;12.82;6.47;;;;;;;2.45;59.43;101387.53;1691473;83;26250;-61
2022/04/12 02:12:33;;;;;;;15.72;6.60;;;;;;;2.46;59.48;101391.92;1692013;83;25733;-61
2022/04/12 02:15:02;;;;;;;16.32;6.55;;;;;;;2.46;59.28;101393.25;1714069;83;27485;-61
2022/04/12 02:17:29;;;;;;;12.63;7.00;;;;;;;2.45;59.35;101391.52;1699933;83;25770;-61
2022/04/12 02:19:56;;;;;;;14.60;6.75;;;;;;;2.44;59.20;101397.31;1717977;83;25728;-61
2022/04/12 02:22:24;;;;;;;11.53;6.20;;;;;;;2.43;59.48;101400.01;1717967;83;26976;-61
2022/04/12 02:24:50;;;;;;;14.28;7.03;;;;;;;2.35;60.67;101401.22;1694734;83;25704;-61
2022/04/12 02:27:17;;;;;;;12.18;6.78;;;;;;;2.27;60.82;101400.70;1717320;83;27492;-62
2022/04/12 02:29:44;;;;;;;13.83;7.53;;;;;;;2.24;60.87;101397.31;1706029;82;25708;-61
2022/04/12 02:32:11;;;;;;;14.78;6.55;;;;;;;2.24;60.96;101395.51;1695550;83;25826;-61
2022/04/12 02:34:38;;;;;;;14.35;7.22;;;;;;;2.29;61.24;101391.33;1689217;84;26169;-60
2022/04/12 02:37:05;;;;;;;11.85;6.10;;;;;;;2.35;61.37;101398.56;1689765;84;25737;-61
2022/04/12 02:39:32;;;;;;;12.88;6.15;;;;;;;2.39;61.63;101392.65;1704192;82;27469;-61
2022/04/12 02:41:59;;;;;;;12.15;6.92;;;;;;;2.43;61.24;101392.92;1718209;83;25698;-61
2022/04/12 02:44:26;;;;;;;14.33;6.20;;;;;;;2.49;61.12;101398.44;1718327;83;25709;-61
2022/04/12 02:46:54;;;;;;;13.18;7.03;;;;;;;2.57;61.12;101392.76;1718120;83;26122;-61
2022/04/12 02:49:21;;;;;;;14.60;6.78;;;;;;;2.60;60.94;101397.46;1718447;83;25894;-61
2022/04/12 02:51:48;;;;;;;18.60;6.80;;;;;;;2.64;60.70;101391.57;1697077;83;27570;-61
2022/04/12 02:54:14;;;;;;;19.20;6.83;;;;;;;2.66;60.54;101398.53;1695764;83;25956;-61
2022/04/12 02:56:41;;;;;;;15.83;7.35;;;;;;;2.68;60.32;101393.62;1722764;82;25726;-62
2022/04/12 02:59:07;;;;;;;13.65;6.80;;;;;;;2.64;60.46;101393.75;1695270;82;26247;-61
2022/04/12 03:01:34;;;;;;;12.47;7.25;;;;;;;2.56;60.35;101393.23;1686846;84;25555;-61
2022/04/12 03:04:01;;;;;;;16.52;7.22;;;;;;;2.41;60.85;101392.13;1697557;83;28256;-61
2022/04/12 03:06:29;;;;;;;14.55;7.33;;;;;;;2.27;60.87;101398.52;1694359;83;25533;-61
2022/04/12 03:08:55;;;;;;;19.15;7.62;;;;;;;2.18;61.01;101406.41;1694402;83;25740;-61
2022/04/12 03:11:22;;;;;;;14.75;7.65;;;;;;;2.12;61.28;101404.88;1694839;84;26283;-61
2022/04/12 03:13:49;;;;;;;24.63;10.95;;;;;;;2.09;61.52;101408.12;1696555;83;25854;-61
2022/04/12 03:16:15;;;;;;;19.62;7.33;;;;;;;2.09;61.72;101410.78;1716458;82;27423;-61
2022/04/12 03:18:42;;;;;;;20.52;8.30;;;;;;;2.03;62.11;101411.45;1723284;82;25789;-61
2022/04/12 03:21:09;;;;;;;24.18;8.48;;;;;;;1.96;62.41;101413.97;1723433;83;25462;-59
2022/04/12 03:23:36;;;;;;;17.52;7.75;;;;;;;1.88;63.06;101408.13;1723386;82;26116;-59
2022/04/12 03:26:04;;;;;;;17.25;7.58;;;;;;;1.82;62.92;101407.92;1721492;83;25764;-60
2022/04/12 03:28:30;;;;;;;14.50;8.43;;;;;;;1.77;63.78;101408.55;1723476;83;27476;-59
2022/04/12 03:30:57;;;;;;;20.25;8.50;;;;;;;1.74;63.65;101407.82;1721229;83;25493;-59
2022/04/12 03:33:24;;;;;;;32.70;17.15;;;;;;;1.74;63.91;101403.84;1723415;82;25704;-60
2022/04/12 03:35:51;;;;;;;17.50;9.45;;;;;;;1.82;63.88;101402.61;1723446;83;26089;-60
2022/04/12 03:38:18;;;;;;;18.90;9.10;;;;;;;1.92;63.67;101402.23;1721437;83;25757;-60
2022/04/12 03:40:46;;;;;;;13.90;7.60;;;;;;;1.94;63.77;101412.29;1723511;82;27475;-60
2022/04/12 03:43:13;;;;;;;22.77;12.80;;;;;;;1.95;63.83;101410.92;1723328;83;25795;-60
2022/04/12 03:45:40;;;;;;;25.88;12.55;;;;;;;1.96;63.87;101413.97;1721070;82;25842;-60
2022/04/12 03:48:07;;;;;;;20.82;11.25;;;;;;;1.94;63.59;101413.17;1721324;82;26096;-60
2022/04/12 03:50:37;;;;;;;18.12;8.63;;;;;;;1.95;63.68;101420.20;1703545;83;27205;-60
2022/04/12 03:53:04;;;;;;;21.33;10.93;;;;;;;1.98;63.62;101413.91;1693580;84;27480;-60
2022/04/12 03:55:30;;;;;;;19.02;9.73;;;;;;;1.99;63.42;101418.28;1708322;83;25783;-60
2022/04/12 03:58:06;;;;;;;19.27;8.08;;;;;;;2.00;63.54;101418.69;1697782;84;25697;-60
2022/04/12 04:00:35;;;;;;;25.43;13.83;;;;;;;1.98;63.94;101422.71;1679248;84;26091;-60
2022/04/12 04:03:02;;;;;;;17.15;8.43;;;;;;;1.96;63.78;101423.71;1684595;84;25789;-60
2022/04/12 04:05:28;;;;;;;12.25;7.80;;;;;;;1.99;63.67;101424.92;1679770;84;27480;-60
2022/04/12 04:07:56;;;;;;;19.20;9.70;;;;;;;2.04;63.91;101432.20;1681658;84;27271;-60
2022/04/12 04:10:23;;;;;;;29.23;8.35;;;;;;;2.09;64.00;101428.03;1689923;83;25827;-59
2022/04/12 04:12:49;;;;;;;15.43;9.00;;;;;;;2.14;63.51;101433.55;1690366;84;28210;-60
2022/04/12 04:15:16;;;;;;;16.73;7.85;;;;;;;2.21;63.64;101434.16;1706546;82;27332;-60
2022/04/12 04:17:46;;;;;;;20.97;8.65;;;;;;;2.30;63.86;101440.84;1717688;81;27410;-60
2022/04/12 04:20:17;;;;;;;16.55;8.70;;;;;;;2.33;63.68;101438.06;1690834;83;25795;-60
2022/04/12 04:22:44;;;;;;;12.60;7.85;;;;;;;2.37;63.35;101441.00;1681712;84;25769;-60
2022/04/12 04:25:15;;;;;;;20.52;7.85;;;;;;;2.41;63.36;101441.25;1708202;84;26132;-60
2022/04/12 04:27:43;;;;;;;17.02;8.13;;;;;;;2.48;63.38;101434.73;1708692;84;25730;-59
2022/04/12 04:30:11;;;;;;;13.40;7.87;;;;;;;2.56;63.33;101438.84;1702629;83;27525;-59
2022/04/12 04:32:40;;;;;;;25.30;8.90;;;;;;;2.62;63.32;101438.59;1693758;84;25832;-59
2022/04/12 04:35:09;;;;;;;15.63;9.03;;;;;;;2.68;62.98;101430.33;1737246;82;25784;-60
2022/04/12 04:37:48;;;;;;;16.73;8.00;;;;;;;2.71;63.27;101436.84;1691150;84;26713;-60
2022/04/12 04:40:19;;;;;;;14.13;7.70;;;;;;;2.75;63.76;101437.09;1711383;83;25822;-60
2022/04/12 04:42:46;;;;;;;13.53;8.15;;;;;;;2.78;63.44;101438.77;1693370;83;27636;-60
2022/04/12 04:45:15;;;;;;;14.85;7.78;;;;;;;2.84;63.71;101441.59;1708272;83;25576;-60
2022/04/12 04:47:56;;;;;;;15.43;7.95;;;;;;;2.88;63.35;101449.35;1708341;83;26590;-60
2022/04/12 04:50:25;;;;;;;14.68;8.10;;;;;;;2.92;63.27;101445.64;1723809;82;26085;-60
2022/04/12 04:52:53;;;;;;;17.20;8.40;;;;;;;2.97;63.04;101449.41;1667704;84;25795;-60
2022/04/12 04:55:21;;;;;;;16.67;7.58;;;;;;;3.06;62.96;101448.11;1709980;83;27464;-60
2022/04/12 04:57:48;;;;;;;24.75;8.78;;;;;;;3.13;62.85;101448.25;1705302;83;25754;-60
2022/04/12 05:00:18;;;;;;;24.40;8.03;;;;;;;3.19;62.69;101451.94;1694131;83;25799;-60
2022/04/12 05:02:50;;;;;;;16.65;8.70;;;;;;;3.23;62.65;101453.98;1679989;84;26070;-60
2022/04/12 05:05:18;;;;;;;18.52;8.38;;;;;;;3.26;62.50;101458.69;1679803;85;25754;-60
2022/04/12 05:07:48;;;;;;;17.12;8.85;;;;;;;3.32;62.64;101449.56;1679799;84;27487;-60
2022/04/12 05:10:22;;;;;;;13.15;7.08;;;;;;;3.38;62.65;101459.05;1700693;84;25749;-60
2022/04/12 05:12:49;;;;;;;19.90;8.30;;;;;;;3.45;62.96;101461.33;1681136;83;25754;-61
2022/04/12 05:15:17;;;;;;;17.07;6.97;;;;;;;3.49;62.60;101462.52;1695286;84;26699;-60
2022/04/12 05:17:52;;;;;;;12.60;7.17;;;;;;;3.60;62.94;101465.54;1684848;84;25803;-60
2022/04/12 05:20:21;;;;;;;14.78;6.97;;;;;;;3.68;62.77;101464.70;1694874;84;28214;-60
2022/04/12 05:22:49;;;;;;;12.73;7.25;;;;;;;3.73;62.46;101468.47;1685578;83;25748;-60
2022/04/12 05:25:16;;;;;;;10.90;6.33;;;;;;;3.83;62.33;101463.55;1701584;83;25741;-60
2022/04/12 05:27:43;;;;;;;24.57;8.73;;;;;;;3.89;62.41;101469.91;1707451;83;26167;-61
2022/04/12 05:30:13;;;;;;;12.13;6.95;;;;;;;3.96;62.18;101475.33;1702955;84;25750;-60
2022/04/12 05:32:41;;;;;;;12.50;7.40;;;;;;;3.99;62.03;101473.81;1679692;84;27575;-60
2022/04/12 05:35:10;;;;;;;15.20;7.45;;;;;;;4.05;61.89;101473.53;1679934;84;25749;-60
2022/04/12 05:37:47;;;;;;;16.50;7.90;;;;;;;4.11;61.87;101477.70;1679685;84;25809;-60
2022/04/12 05:40:15;;;;;;;18.65;8.58;;;;;;;4.15;61.73;101474.41;1679756;84;26064;-60
2022/04/12 05:42:43;;;;;;;14.78;7.92;;;;;;;4.17;61.80;101465.39;1679841;85;25666;-61
2022/04/12 05:45:12;;;;;;;21.30;8.68;;;;;;;4.21;61.75;101474.09;1672832;85;27443;-61
2022/04/12 05:47:45;;;;;;;21.97;7.78;;;;;;;4.25;61.73;101469.02;1694316;83;25707;-61
2022/04/12 05:50:14;;;;;;;18.90;8.33;;;;;;;4.31;61.65;101468.69;1697877;83;25472;-60
2022/04/12 05:52:42;;;;;;;15.08;8.50;;;;;;;4.40;61.33;101463.34;1678659;85;26095;-60
2022/04/12 05:55:15;;;;;;;19.40;9.98;;;;;;;4.44;61.34;101461.41;1718021;82;25945;-60
2022/04/12 05:57:59;;;;;;;17.85;9.75;;;;;;;4.50;61.43;101457.08;1661942;86;28671;-60
2022/04/12 06:00:30;;;;;;;17.42;9.53;;;;;;;4.51;61.54;101465.47;1714828;83;25840;-60
2022/04/12 06:02:57;;;;;;;21.73;9.00;;;;;;;4.55;61.36;101471.02;1694350;84;25491;-60
2022/04/12 06:05:32;;;;;;;15.13;8.88;;;;;;;4.60;61.08;101470.77;1706639;83;26078;-60
2022/04/12 06:07:59;;;;;;;15.20;8.13;;;;;;;4.62;60.69;101466.23;1629971;87;25903;-60
2022/04/12 06:10:26;;;;;;;15.78;8.85;;;;;;;4.69;60.85;101465.84;1656386;86;27673;-60
2022/04/12 06:12:53;;;;;;;15.32;8.30;;;;;;;4.78;60.73;101472.95;1637211;86;25477;-60
2022/04/12 06:15:20;;;;;;;14.58;7.70;;;;;;;4.80;60.34;101469.27;1657956;86;25818;-60
2022/04/12 06:17:47;;;;;;;11.88;7.25;;;;;;;4.80;60.20;101461.27;1660621;86;26173;-60
2022/04/12 06:20:17;;;;;;;21.05;8.18;;;;;;;4.87;60.30;101471.14;1689315;83;26569;-60
2022/04/12 06:22:45;;;;;;;17.42;7.80;;;;;;;4.88;59.87;101466.66;1687037;84;27574;-60
2022/04/12 06:25:14;;;;;;;16.70;7.20;;;;;;;4.93;60.24;101468.62;1681641;84;25808;-60
2022/04/12 06:27:46;;;;;;;18.55;7.87;;;;;;;5.04;60.33;101465.36;1675678;83;25878;-60
2022/04/12 06:30:20;;;;;;;14.65;7.50;;;;;;;5.10;59.54;101461.02;1680100;83;26048;-60
2022/04/12 06:32:47;;;;;;;13.88;7.08;;;;;;;5.18;59.84;101457.45;1688553;84;26134;-60
2022/04/12 06:35:15;;;;;;;13.83;7.08;;;;;;;5.32;59.52;101456.23;1670477;84;28336;-60
2022/04/12 06:37:45;;;;;;;9.93;5.92;;;;;;;5.42;58.98;101462.40;1687557;84;25833;-59
2022/04/12 06:40:15;;;;;;;13.65;6.87;;;;;;;5.50;58.42;101466.83;1691316;83;25834;-60
2022/04/12 06:42:42;;;;;;;12.50;5.87;;;;;;;5.54;58.13;101457.69;1669964;84;25840;-60
2022/04/12 06:45:13;;;;;;;10.80;6.15;;;;;;;5.65;58.07;101458.41;1686016;84;25803;-60
2022/04/12 06:47:41;;;;;;;10.58;5.25;;;;;;;5.76;56.92;101458.66;1681872;83;27434;-59
2022/04/12 06:50:11;;;;;;;14.15;6.58;;;;;;;5.85;56.96;101459.95;1682356;84;25823;-60
2022/04/12 06:52:38;;;;;;;10.95;5.28;;;;;;;5.93;56.16;101453.69;1675591;84;25786;-60
2022/04/12 06:55:07;;;;;;;15.55;6.53;;;;;;;6.01;56.55;101450.58;1669322;84;26899;-59
2022/04/12 06:57:36;;;;;;;20.00;6.40;;;;;;;6.10;56.29;101454.05;1683095;83;25814;-60
2022/04/12 07:00:07;;;;;;;11.63;5.92;;;;;;;6.23;56.84;101466.70;1673794;85;27472;-60
2022/04/12 07:02:36;;;;;;;11.83;6.67;;;;;;;6.29;55.74;101453.45;1676333;84;25836;-59
2022/04/12 07:05:05;;;;;;;12.68;7.28;;;;;;;6.35;55.60;101455.29;1683911;85;25708;-59
2022/04/12 07:07:32;;;;;;;22.22;7.08;;;;;;;6.42;55.10;101466.45;1672731;85;26826;-60
2022/04/12 07:09:59;;;;;;;12.88;5.37;;;;;;;6.44;54.63;101467.72;1631660;87;25672;-60
2022/04/12 07:12:25;;;;;;;17.70;5.28;;;;;;;6.44;54.33;101457.87;1706601;83;27089;-60
2022/04/12 07:14:52;;;;;;;10.65;5.37;;;;;;;6.50;54.43;101452.14;1717145;83;25801;-61
2022/04/12 07:17:20;;;;;;;9.95;5.37;;;;;;;6.58;54.38;101446.34;1699124;83;25778;-60
2022/04/12 07:19:47;;;;;;;10.05;5.45;;;;;;;6.72;54.04;101458.86;1687412;83;26041;-60
2022/04/12 07:22:13;;;;;;;14.10;4.83;;;;;;;6.78;52.95;101450.45;1717899;83;25778;-60
2022/04/12 07:24:40;;;;;;;12.70;5.58;;;;;;;6.84;53.13;101453.23;1718148;82;27554;-60
2022/04/12 07:27:07;;;;;;;10.98;5.65;;;;;;;6.87;52.50;101452.56;1717784;83;25812;-60
2022/04/12 07:29:34;;;;;;;19.70;5.80;;;;;;;6.93;52.67;101459.84;1718077;82;25816;-60
2022/04/12 07:32:02;;;;;;;11.22;5.28;;;;;;;7.02;52.40;101464.62;1717971;83;26285;-60
2022/04/12 07:34:29;;;;;;;12.47;5.17;;;;;;;7.11;52.23;101451.13;1718423;83;25448;-60
2022/04/12 07:36:56;;;;;;;14.63;4.30;;;;;;;7.15;51.27;101458.86;1718213;83;27499;-60
2022/04/12 07:39:24;;;;;;;7.33;3.77;;;;;;;7.34;50.74;101446.52;1718239;83;25852;-60
2022/04/12 07:41:52;;;;;;;7.33;3.67;;;;;;;7.49;49.62;101455.84;1718098;82;25717;-60
2022/04/12 07:44:21;;;;;;;9.68;3.50;;;;;;;7.63;48.71;101445.09;1702076;83;26218;-60
2022/04/12 07:46:48;;;;;;;8.50;3.33;;;;;;;7.76;48.96;101464.37;1686365;85;25832;-60
2022/04/12 07:49:15;;;;;;;7.35;3.60;;;;;;;7.81;48.04;101464.92;1686477;84;27503;-61
2022/04/12 07:51:43;;;;;;;10.53;4.03;;;;;;;7.91;48.37;101462.52;1717926;83;25499;-60
2022/04/12 07:54:10;;;;;;;16.97;6.62;;;;;;;7.97;48.16;101469.67;1718373;83;25590;-60
2022/04/12 07:56:37;;;;;;;10.03;5.17;;;;;;;7.97;47.40;101464.31;1723270;83;26292;-60
2022/04/12 07:59:04;;;;;;;14.20;4.58;;;;;;;8.11;48.30;101462.52;1700020;83;25751;-60
2022/04/12 08:01:31;;;;;;;14.73;5.17;;;;;;;8.35;47.14;101455.09;1662189;84;27710;-60
2022/04/12 08:03:58;;;;;;;10.72;3.25;;;;;;;8.51;47.38;101453.14;1661978;86;25832;-60
2022/04/12 08:06:24;;;;;;;6.80;3.17;;;;;;;8.67;46.28;101445.36;1662060;86;25639;-60
2022/04/12 08:08:52;;;;;;;5.40;3.60;;;;;;;8.82;46.17;101455.50;1661947;84;26077;-60
2022/04/12 08:11:18;;;;;;;8.80;3.52;;;;;;;8.97;44.10;101445.02;1662042;86;25490;-60
2022/04/12 08:13:45;;;;;;;6.60;3.75;;;;;;;9.08;43.81;101449.14;1662371;84;28403;-60
2022/04/12 08:16:15;;;;;;;7.05;3.17;;;;;;;9.02;43.52;101450.06;1661997;86;25737;-60
2022/04/12 08:18:43;;;;;;;15.35;3.17;;;;;;;9.13;43.98;101435.86;1662195;86;25597;-59
2022/04/12 08:21:10;;;;;;;8.40;3.17;;;;;;;9.13;43.38;101439.42;1662021;85;26217;-60
2022/04/12 08:23:37;;;;;;;4.58;2.80;;;;;;;9.04;42.16;101450.31;1662187;86;25753;-60
2022/04/12 08:26:04;;;;;;;7.47;3.15;;;;;;;9.02;42.49;101442.00;1661894;86;27544;-60
2022/04/12 08:28:30;;;;;;;6.92;2.77;;;;;;;9.25;42.88;101434.98;1661821;84;25863;-60
2022/04/12 08:30:57;;;;;;;11.25;3.62;;;;;;;9.37;42.68;101446.16;1662127;86;25682;-60
2022/04/12 08:33:26;;;;;;;8.75;3.30;;;;;;;9.45;40.61;101456.34;1661859;86;25968;-60
2022/04/12 08:35:52;;;;;;;8.20;3.30;;;;;;;9.42;40.29;101440.45;1662063;84;25986;-60
2022/04/12 08:38:19;;;;;;;8.73;2.92;;;;;;;9.49;41.11;101447.58;1661956;86;26813;-60
2022/04/12 08:40:48;;;;;;;8.18;3.12;;;;;;;9.43;40.29;101447.54;1662053;84;26391;-60
2022/04/12 08:43:16;;;;;;;5.45;2.55;;;;;;;9.49;40.49;101444.43;1635553;85;25837;-61
2022/04/12 08:45:45;;;;;;;9.85;3.45;;;;;;;9.65;40.63;101432.04;1665035;86;26119;-60
2022/04/12 08:48:13;;;;;;;4.15;2.72;;;;;;;9.98;41.05;101429.63;1665442;86;25706;-60
2022/04/12 08:50:40;;;;;;;6.40;3.15;;;;;;;10.19;40.50;101441.92;1661809;86;27335;-61
2022/04/12 08:53:09;;;;;;;11.73;5.30;;;;;;;10.15;39.17;101439.95;1661939;86;25754;-60
2022/04/12 08:55:36;;;;;;;7.03;3.00;;;;;;;10.08;39.13;101429.80;1721569;82;25756;-61
2022/04/12 08:58:03;;;;;;;11.48;3.75;;;;;;;10.24;39.07;101441.57;1711294;83;26095;-61
2022/04/12 09:00:30;;;;;;;10.70;3.02;;;;;;;10.31;39.21;101428.89;1671621;84;25764;-61
2022/04/12 09:02:59;;;;;;;6.75;3.22;;;;;;;10.20;39.14;101445.48;1691636;84;27497;-60
2022/04/12 09:05:27;;;;;;;9.15;3.27;;;;;;;10.11;39.27;101445.22;1691627;83;25774;-61
2022/04/12 09:07:55;;;;;;;9.53;3.17;;;;;;;10.26;39.54;101435.12;1691836;83;25881;-61
2022/04/12 09:10:34;;;;;;;9.40;2.90;;;;;;;10.67;39.16;101425.31;1691723;84;27074;-61
2022/04/12 09:13:14;;;;;;;9.40;3.45;;;;;;;11.09;39.08;101424.21;1691828;83;25774;-60
2022/04/12 09:15:45;;;;;;;9.15;3.30;;;;;;;11.24;37.91;101427.50;1691589;83;28225;-61
2022/04/12 09:18:12;;;;;;;6.22;2.75;;;;;;;11.71;36.96;101421.88;1691786;84;25723;-61
2022/04/12 09:20:43;;;;;;;6.83;2.65;;;;;;;12.12;35.02;101407.27;1691447;84;25771;-60
2022/04/12 09:23:16;;;;;;;6.80;2.95;;;;;;;11.84;34.66;101427.09;1691872;84;26192;-60
2022/04/12 09:25:55;;;;;;;11.18;3.55;;;;;;;11.59;35.02;101423.75;1691619;83;25676;-60
2022/04/12 09:28:22;;;;;;;8.45;3.47;;;;;;;12.02;35.00;101411.26;1691787;84;28449;-60
2022/04/12 09:30:55;;;;;;;18.98;3.10;;;;;;;12.48;34.37;101409.14;1691537;84;25751;-60
2022/04/12 09:33:36;;;;;;;15.68;3.20;;;;;;;12.25;34.02;101420.56;1691571;84;25958;-60
2022/04/12 09:36:05;;;;;;;4.85;2.85;;;;;;;12.73;33.10;101423.22;1691650;83;26090;-60
2022/04/12 09:38:37;;;;;;;7.92;2.90;;;;;;;13.51;32.63;101398.31;1689475;83;25864;-61
2022/04/12 09:41:23;;;;;;;5.65;2.52;;;;;;;13.28;32.05;101404.78;1690170;84;27535;-60
2022/04/12 09:44:08;;;;;;;4.28;2.55;;;;;;;14.06;31.42;101415.36;1681063;84;25920;-61
2022/04/12 09:46:38;;;;;;;12.20;3.37;;;;;;;14.20;29.74;101393.78;1662152;86;25764;-60
2022/04/12 09:49:06;;;;;;;8.03;2.77;;;;;;;13.31;30.15;101419.38;1666065;83;26048;-61
2022/04/12 09:51:38;;;;;;;3.08;2.22;;;;;;;12.67;31.68;101418.70;1720598;83;25714;-61
2022/04/12 09:54:07;;;;;;;6.75;2.33;;;;;;;12.76;31.67;101416.19;1720678;83;27453;-60
2022/04/12 09:56:39;;;;;;;10.65;3.40;;;;;;;13.92;32.07;101403.97;1718880;83;25796;-61
2022/04/12 09:59:07;;;;;;;6.45;2.47;;;;;;;14.46;30.17;101400.76;1694065;83;25726;-61
2022/04/12 10:01:39;;;;;;;7.80;2.98;;;;;;;13.79;29.83;101410.17;1656944;86;26083;-61
2022/04/12 10:04:11;;;;;;;11.90;2.65;;;;;;;13.08;30.07;101414.69;1657280;85;25745;-61
2022/04/12 10:06:41;;;;;;;2.95;1.90;;;;;;;13.86;29.37;101400.48;1656776;85;27481;-61
2022/04/12 10:09:11;;;;;;;7.80;2.95;;;;;;;14.76;29.70;101396.63;1657140;86;25978;-61
2022/04/12 10:11:40;;;;;;;6.58;2.33;;;;;;;14.08;28.99;101389.87;1656828;85;25884;-61
2022/04/12 10:14:08;;;;;;;7.83;2.83;;;;;;;13.41;29.43;101408.61;1656892;86;26737;-60
2022/04/12 10:16:35;;;;;;;4.97;2.00;;;;;;;12.84;29.44;101417.23;1656614;86;25834;-61
2022/04/12 10:19:03;;;;;;;3.77;2.05;;;;;;;12.36;29.94;101407.02;1657070;85;27324;-61
2022/04/12 10:21:30;;;;;;;16.20;3.83;;;;;;;12.36;30.13;101409.24;1658383;86;25839;-61
2022/04/12 10:24:00;;;;;;;4.40;2.35;;;;;;;12.84;30.45;101401.03;1658468;86;25897;-61
2022/04/12 10:26:29;;;;;;;5.78;2.35;;;;;;;13.97;28.92;101397.29;1658533;86;26279;-60
2022/04/12 10:29:04;;;;;;;5.22;2.20;;;;;;;13.84;29.07;101390.81;1658496;86;25842;-60
2022/04/12 10:31:31;;;;;;;8.03;3.60;;;;;;;13.64;29.59;101397.56;1686229;83;27733;-61
2022/04/12 10:34:14;;;;;;;11.35;4.25;;;;;;;13.27;28.05;101381.97;1686032;84;25820;-60
2022/04/12 10:37:04;;;;;;;9.30;2.60;;;;;;;13.22;28.79;101381.55;1687180;83;25531;-61
2022/04/12 10:39:36;;;;;;;5.92;2.35;;;;;;;13.25;28.95;101390.70;1658272;85;26300;-60
2022/04/12 10:42:10;;;;;;;3.95;2.30;;;;;;;13.34;28.57;101393.92;1658588;85;25807;-61
2022/04/12 10:44:44;;;;;;;4.83;2.92;;;;;;;13.06;29.29;101398.27;1675966;84;27701;-61
2022/04/12 10:47:33;;;;;;;6.58;2.67;;;;;;;12.75;29.87;101400.97;1685648;84;26123;-61
2022/04/12 10:50:10;;;;;;;23.27;3.30;;;;;;;12.49;30.17;101408.16;1683388;84;25786;-61
2022/04/12 10:52:48;;;;;;;5.97;2.52;;;;;;;12.20;30.05;101402.95;1718142;83;25746;-60
2022/04/12 10:55:26;;;;;;;10.10;3.77;;;;;;;12.00;29.93;101414.57;1718040;83;25756;-60
2022/04/12 10:57:56;;;;;;;5.00;2.60;;;;;;;11.89;30.98;101401.47;1710221;82;27182;-61
2022/04/12 11:00:24;;;;;;;6.20;2.65;;;;;;;12.33;30.72;101401.88;1655136;86;25958;-61
2022/04/12 11:02:57;;;;;;;9.65;2.72;;;;;;;12.60;29.45;101399.12;1639671;86;25578;-60
2022/04/12 11:05:45;;;;;;;8.00;2.70;;;;;;;12.56;28.61;101399.05;1657487;86;26059;-60
2022/04/12 11:08:20;;;;;;;10.70;3.30;;;;;;;13.07;29.07;101392.72;1657340;86;25793;-60
2022/04/12 11:10:55;;;;;;;8.43;2.90;;;;;;;13.02;27.99;101388.23;1657283;86;27480;-61
2022/04/12 11:13:26;;;;;;;6.45;3.00;;;;;;;12.98;28.87;101384.95;1656908;86;25509;-61
2022/04/12 11:15:59;;;;;;;9.95;3.10;;;;;;;12.80;29.32;101395.53;1657015;85;25519;-61
2022/04/12 11:18:54;;;;;;;14.10;3.75;;;;;;;12.42;29.77;101414.58;1656938;85;26102;-60
2022/04/12 11:21:54;;;;;;;9.83;2.70;;;;;;;12.07;29.83;101414.41;1656947;85;25835;-61
2022/04/12 11:24:25;;;;;;;8.80;3.40;;;;;;;11.93;30.36;101414.70;1658131;85;27534;-61
2022/04/12 11:27:11;;;;;;;7.95;3.77;;;;;;;11.81;30.75;101417.94;1691190;84;25778;-61
2022/04/12 11:29:42;;;;;;;16.25;3.17;;;;;;;11.52;30.59;101415.31;1656740;86;25739;-61
2022/04/12 11:32:11;;;;;;;10.82;4.33;;;;;;;11.46;31.26;101411.79;1656925;86;26108;-61
2022/04/12 11:34:40;;;;;;;6.87;3.27;;;;;;;11.21;31.84;101424.58;1687812;84;25672;-60
2022/04/12 11:37:12;;;;;;;11.70;3.98;;;;;;;11.12;32.35;101422.12;1687731;85;27623;-60